sensor_id;sensor_type;location;lat;lon;timestamp;P1;P2;P0
49686;PMS5003;36064;38.180;-122.272;2022-08-07T00:00:00;2.8;2.4;
49686;PMS5003;36064;38.180;-122.272;2022-08-07T00:05:00;2.8;2.0;
49686;PMS5003;36064;38.180;-122.272;2022-08-07T00:10:00;3.0;2.6;
49686;PMS5003;36064;38.180;-122.272;2022-08-07T00:15:00;3.2;2.6;
49686;PMS5003;36064;38.180;-122.272;2022-08-07T00:20:00;3.2;2.8;
49686;PMS5003;36064;38.180;-122.272;2022-08-07T00:25:00;2.4;2.0;
49686;PMS5003;36064;38.180;-122.272;2022-08-07T00:30:00;3.0;2.8;
49686;PMS5003;36064;38.180;-122.272;2022-08-07T00:35:00;2.6;2.6;
49686;PMS5003;36064;38.180;-122.272;2022-08-07T00:40:00;4.0;1.6;
49686;PMS5003;36064;38.180;-122.272;2022-08-07T00:45:00;4.6;2.2;
49686;PMS5003;36064;38.180;-122.272;2022-08-07T00:50:00;2.4;2.4;
49686;PMS5003;36064;38.180;-122.272;2022-08-07T00:55:00;2.8;2.4;
49686;PMS5003;36064;38.180;-122.272;2022-08-07T01:00:01;2.8;2.6;
49686;PMS5003;36064;38.180;-122.272;2022-08-07T01:05:01;2.8;2.0;
49686;PMS5003;36064;38.180;-122.272;2022-08-07T01:10:00;3.2;2.8;
49686;PMS5003;36064;38.180;-122.272;2022-08-07T01:15:01;2.6;2.2;
49686;PMS5003;36064;38.180;-122.272;2022-08-07T01:20:02;3.6;3.2;
49686;PMS5003;36064;38.180;-122.272;2022-08-07T01:25:00;3.0;2.8;
49686;PMS5003;36064;38.180;-122.272;2022-08-07T01:30:01;2.6;2.2;
49686;PMS5003;36064;38.180;-122.272;2022-08-07T01:35:00;3.4;2.6;
49686;PMS5003;36064;38.180;-122.272;2022-08-07T01:40:00;3.8;3.4;
49686;PMS5003;36064;38.180;-122.272;2022-08-07T01:45:01;3.4;3.0;
49686;PMS5003;36064;38.180;-122.272;2022-08-07T01:50:00;3.4;3.0;
49686;PMS5003;36064;38.180;-122.272;2022-08-07T01:55:00;1.2;1.2;
49686;PMS5003;36064;38.180;-122.272;2022-08-07T02:00:03;2.0;2.0;
49686;PMS5003;36064;38.180;-122.272;2022-08-07T02:05:02;2.8;2.4;
49686;PMS5003;36064;38.180;-122.272;2022-08-07T02:10:01;3.6;2.4;
49686;PMS5003;36064;38.180;-122.272;2022-08-07T02:15:00;3.2;2.0;
49686;PMS5003;36064;38.180;-122.272;2022-08-07T02:20:01;2.6;1.6;
49686;PMS5003;36064;38.180;-122.272;2022-08-07T02:25:00;2.2;1.8;
49686;PMS5003;36064;38.180;-122.272;2022-08-07T02:30:01;2.8;2.0;
49686;PMS5003;36064;38.180;-122.272;2022-08-07T02:35:01;3.2;2.8;
49686;PMS5003;36064;38.180;-122.272;2022-08-07T02:40:00;4.6;4.4;
49686;PMS5003;36064;38.180;-122.272;2022-08-07T02:45:01;4.6;4.4;
49686;PMS5003;36064;38.180;-122.272;2022-08-07T02:50:01;2.0;2.4;
49686;PMS5003;36064;38.180;-122.272;2022-08-07T02:55:02;3.4;2.4;
49686;PMS5003;36064;38.180;-122.272;2022-08-07T03:00:01;4.2;4.2;
49686;PMS5003;36064;38.180;-122.272;2022-08-07T03:05:00;2.4;2.4;
49686;PMS5003;36064;38.180;-122.272;2022-08-07T03:10:00;3.6;3.2;
49686;PMS5003;36064;38.180;-122.272;2022-08-07T03:15:00;3.6;3.0;
49686;PMS5003;36064;38.180;-122.272;2022-08-07T03:20:00;3.0;2.4;
49686;PMS5003;36064;38.180;-122.272;2022-08-07T03:25:00;2.4;2.8;
49686;PMS5003;36064;38.180;-122.272;2022-08-07T03:30:00;2.8;2.4;
49686;PMS5003;36064;38.180;-122.272;2022-08-07T03:35:01;1.4;1.4;
49686;PMS5003;36064;38.180;-122.272;2022-08-07T03:40:00;3.0;3.0;
49686;PMS5003;36064;38.180;-122.272;2022-08-07T03:45:01;3.0;3.0;
49686;PMS5003;36064;38.180;-122.272;2022-08-07T03:50:01;3.0;3.0;
49686;PMS5003;36064;38.180;-122.272;2022-08-07T03:55:00;3.8;2.8;
49686;PMS5003;36064;38.180;-122.272;2022-08-07T04:00:00;5.2;5.2;
49686;PMS5003;36064;38.180;-122.272;2022-08-07T04:05:00;2.4;2.4;
49686;PMS5003;36064;38.180;-122.272;2022-08-07T04:10:00;2.4;2.0;
49686;PMS5003;36064;38.180;-122.272;2022-08-07T04:15:00;3.2;3.0;
49686;PMS5003;36064;38.180;-122.272;2022-08-07T04:20:00;3.0;3.2;
49686;PMS5003;36064;38.180;-122.272;2022-08-07T04:25:00;3.0;2.6;
49686;PMS5003;36064;38.180;-122.272;2022-08-07T04:30:00;3.4;3.6;
49686;PMS5003;36064;38.180;-122.272;2022-08-07T04:35:01;3.0;2.8;
49686;PMS5003;36064;38.180;-122.272;2022-08-07T04:40:00;4.2;4.2;
49686;PMS5003;36064;38.180;-122.272;2022-08-07T04:45:01;4.2;3.6;
49686;PMS5003;36064;38.180;-122.272;2022-08-07T04:50:02;4.4;3.4;
49686;PMS5003;36064;38.180;-122.272;2022-08-07T04:55:02;2.8;3.6;
49686;PMS5003;36064;38.180;-122.272;2022-08-07T05:00:02;2.8;2.4;
49686;PMS5003;36064;38.180;-122.272;2022-08-07T05:05:04;3.2;2.8;
49686;PMS5003;36064;38.180;-122.272;2022-08-07T05:10:02;3.0;2.8;
49686;PMS5003;36064;38.180;-122.272;2022-08-07T05:15:02;4.2;3.0;
49686;PMS5003;36064;38.180;-122.272;2022-08-07T05:20:00;4.8;4.2;
49686;PMS5003;36064;38.180;-122.272;2022-08-07T05:25:00;4.0;3.6;
49686;PMS5003;36064;38.180;-122.272;2022-08-07T05:30:00;3.6;3.6;
49686;PMS5003;36064;38.180;-122.272;2022-08-07T05:35:00;5.0;4.8;
49686;PMS5003;36064;38.180;-122.272;2022-08-07T05:40:00;4.2;4.6;
49686;PMS5003;36064;38.180;-122.272;2022-08-07T05:45:01;3.8;3.8;
49686;PMS5003;36064;38.180;-122.272;2022-08-07T05:50:00;4.6;4.6;
49686;PMS5003;36064;38.180;-122.272;2022-08-07T05:55:00;4.8;4.8;
49686;PMS5003;36064;38.180;-122.272;2022-08-07T06:00:00;4.2;3.8;
49686;PMS5003;36064;38.180;-122.272;2022-08-07T06:05:02;4.4;3.2;
49686;PMS5003;36064;38.180;-122.272;2022-08-07T06:10:00;5.4;4.2;
49686;PMS5003;36064;38.180;-122.272;2022-08-07T06:15:00;3.0;2.8;
49686;PMS5003;36064;38.180;-122.272;2022-08-07T06:20:02;5.0;3.6;
49686;PMS5003;36064;38.180;-122.272;2022-08-07T06:25:00;3.0;2.8;
49686;PMS5003;36064;38.180;-122.272;2022-08-07T06:30:00;6.2;5.8;
49686;PMS5003;36064;38.180;-122.272;2022-08-07T06:35:01;4.0;4.8;
49686;PMS5003;36064;38.180;-122.272;2022-08-07T06:40:00;6.6;4.6;
49686;PMS5003;36064;38.180;-122.272;2022-08-07T06:45:00;4.6;3.2;
49686;PMS5003;36064;38.180;-122.272;2022-08-07T06:50:00;4.4;3.2;
49686;PMS5003;36064;38.180;-122.272;2022-08-07T06:55:00;5.2;4.4;
49686;PMS5003;36064;38.180;-122.272;2022-08-07T07:00:00;4.2;3.4;
49686;PMS5003;36064;38.180;-122.272;2022-08-07T07:05:00;5.4;4.4;
49686;PMS5003;36064;38.180;-122.272;2022-08-07T07:10:00;3.2;3.0;
49686;PMS5003;36064;38.180;-122.272;2022-08-07T07:15:02;5.0;4.0;
49686;PMS5003;36064;38.180;-122.272;2022-08-07T07:20:02;5.8;5.0;
49686;PMS5003;36064;38.180;-122.272;2022-08-07T07:25:00;4.4;3.2;
49686;PMS5003;36064;38.180;-122.272;2022-08-07T07:30:01;3.4;3.2;
49686;PMS5003;36064;38.180;-122.272;2022-08-07T07:35:01;3.8;3.8;
49686;PMS5003;36064;38.180;-122.272;2022-08-07T07:40:02;4.0;4.0;
49686;PMS5003;36064;38.180;-122.272;2022-08-07T07:45:01;7.0;6.6;
49686;PMS5003;36064;38.180;-122.272;2022-08-07T07:50:05;5.6;5.2;
49686;PMS5003;36064;38.180;-122.272;2022-08-07T07:55:00;4.4;3.4;
49686;PMS5003;36064;38.180;-122.272;2022-08-07T08:00:01;3.6;3.2;
49686;PMS5003;36064;38.180;-122.272;2022-08-07T08:05:00;4.0;4.0;
49686;PMS5003;36064;38.180;-122.272;2022-08-07T08:10:00;4.0;4.0;
49686;PMS5003;36064;38.180;-122.272;2022-08-07T08:15:00;3.6;3.6;
49686;PMS5003;36064;38.180;-122.272;2022-08-07T08:20:02;5.4;4.2;
49686;PMS5003;36064;38.180;-122.272;2022-08-07T08:25:00;4.2;3.6;
49686;PMS5003;36064;38.180;-122.272;2022-08-07T08:30:02;4.0;4.0;
49686;PMS5003;36064;38.180;-122.272;2022-08-07T08:35:00;3.8;3.2;
49686;PMS5003;36064;38.180;-122.272;2022-08-07T08:40:00;5.6;3.8;
49686;PMS5003;36064;38.180;-122.272;2022-08-07T08:45:02;5.6;5.4;
49686;PMS5003;36064;38.180;-122.272;2022-08-07T08:50:02;7.0;6.6;
49686;PMS5003;36064;38.180;-122.272;2022-08-07T08:55:02;5.0;5.2;
49686;PMS5003;36064;38.180;-122.272;2022-08-07T09:00:03;5.0;4.2;
49686;PMS5003;36064;38.180;-122.272;2022-08-07T09:05:03;4.0;3.4;
49686;PMS5003;36064;38.180;-122.272;2022-08-07T09:10:09;5.4;4.2;
49686;PMS5003;36064;38.180;-122.272;2022-08-07T09:15:04;7.2;5.2;
49686;PMS5003;36064;38.180;-122.272;2022-08-07T09:20:04;4.6;4.0;
49686;PMS5003;36064;38.180;-122.272;2022-08-07T09:25:05;2.8;3.2;
49686;PMS5003;36064;38.180;-122.272;2022-08-07T09:30:02;3.8;3.4;
49686;PMS5003;36064;38.180;-122.272;2022-08-07T09:35:05;5.4;4.0;
49686;PMS5003;36064;38.180;-122.272;2022-08-07T09:40:02;4.8;3.6;
49686;PMS5003;36064;38.180;-122.272;2022-08-07T09:45:04;4.0;3.4;
49686;PMS5003;36064;38.180;-122.272;2022-08-07T09:50:03;6.4;4.2;
49686;PMS5003;36064;38.180;-122.272;2022-08-07T09:55:02;5.0;4.2;
49686;PMS5003;36064;38.180;-122.272;2022-08-07T10:00:03;5.2;4.2;
49686;PMS5003;36064;38.180;-122.272;2022-08-07T10:05:04;4.0;3.0;
49686;PMS5003;36064;38.180;-122.272;2022-08-07T10:10:04;5.6;4.8;
49686;PMS5003;36064;38.180;-122.272;2022-08-07T10:15:05;6.2;5.2;
49686;PMS5003;36064;38.180;-122.272;2022-08-07T10:20:05;5.0;4.4;
49686;PMS5003;36064;38.180;-122.272;2022-08-07T10:25:10;6.4;4.6;
49686;PMS5003;36064;38.180;-122.272;2022-08-07T10:30:04;6.6;5.6;
49686;PMS5003;36064;38.180;-122.272;2022-08-07T10:35:11;6.0;5.8;
49686;PMS5003;36064;38.180;-122.272;2022-08-07T10:40:02;4.2;4.2;
49686;PMS5003;36064;38.180;-122.272;2022-08-07T10:45:03;6.4;5.0;
49686;PMS5003;36064;38.180;-122.272;2022-08-07T10:50:03;6.2;6.6;
49686;PMS5003;36064;38.180;-122.272;2022-08-07T10:55:04;5.0;4.0;
49686;PMS5003;36064;38.180;-122.272;2022-08-07T11:00:05;3.8;3.4;
49686;PMS5003;36064;38.180;-122.272;2022-08-07T11:05:07;5.6;5.6;
49686;PMS5003;36064;38.180;-122.272;2022-08-07T11:10:03;8.0;7.2;
49686;PMS5003;36064;38.180;-122.272;2022-08-07T11:15:02;7.2;6.8;
49686;PMS5003;36064;38.180;-122.272;2022-08-07T11:20:02;6.0;6.8;
49686;PMS5003;36064;38.180;-122.272;2022-08-07T11:25:04;6.8;5.4;
49686;PMS5003;36064;38.180;-122.272;2022-08-07T11:30:02;9.2;6.4;
49686;PMS5003;36064;38.180;-122.272;2022-08-07T11:35:01;9.0;8.6;
49686;PMS5003;36064;38.180;-122.272;2022-08-07T11:40:06;7.0;6.2;
49686;PMS5003;36064;38.180;-122.272;2022-08-07T11:45:06;6.4;6.0;
49686;PMS5003;36064;38.180;-122.272;2022-08-07T11:50:05;5.6;5.2;
49686;PMS5003;36064;38.180;-122.272;2022-08-07T11:55:03;4.6;4.6;
49686;PMS5003;36064;38.180;-122.272;2022-08-07T12:00:03;5.4;4.6;
49686;PMS5003;36064;38.180;-122.272;2022-08-07T12:05:06;6.8;5.0;
49686;PMS5003;36064;38.180;-122.272;2022-08-07T12:10:02;4.8;4.6;
49686;PMS5003;36064;38.180;-122.272;2022-08-07T12:15:02;6.4;4.8;
49686;PMS5003;36064;38.180;-122.272;2022-08-07T12:20:02;6.4;6.0;
49686;PMS5003;36064;38.180;-122.272;2022-08-07T12:25:02;10.2;7.8;
49686;PMS5003;36064;38.180;-122.272;2022-08-07T12:30:01;10.4;8.8;
49686;PMS5003;36064;38.180;-122.272;2022-08-07T12:35:02;6.0;5.6;
49686;PMS5003;36064;38.180;-122.272;2022-08-07T12:40:00;6.2;5.8;
49686;PMS5003;36064;38.180;-122.272;2022-08-07T12:45:03;6.8;6.0;
49686;PMS5003;36064;38.180;-122.272;2022-08-07T12:50:02;6.4;5.6;
49686;PMS5003;36064;38.180;-122.272;2022-08-07T12:55:01;8.6;7.8;
49686;PMS5003;36064;38.180;-122.272;2022-08-07T13:00:01;8.2;8.2;
49686;PMS5003;36064;38.180;-122.272;2022-08-07T13:05:04;6.8;6.0;
49686;PMS5003;36064;38.180;-122.272;2022-08-07T13:15:02;5.0;4.4;
49686;PMS5003;36064;38.180;-122.272;2022-08-07T13:20:02;3.8;3.8;
49686;PMS5003;36064;38.180;-122.272;2022-08-07T13:25:02;4.8;3.8;
49686;PMS5003;36064;38.180;-122.272;2022-08-07T13:30:02;8.4;7.8;
49686;PMS5003;36064;38.180;-122.272;2022-08-07T13:35:02;5.0;5.8;
49686;PMS5003;36064;38.180;-122.272;2022-08-07T13:40:08;6.0;5.2;
49686;PMS5003;36064;38.180;-122.272;2022-08-07T13:45:00;6.8;4.8;
49686;PMS5003;36064;38.180;-122.272;2022-08-07T13:50:00;8.2;6.8;
49686;PMS5003;36064;38.180;-122.272;2022-08-07T13:55:04;4.8;4.8;
49686;PMS5003;36064;38.180;-122.272;2022-08-07T14:00:00;5.0;5.0;
49686;PMS5003;36064;38.180;-122.272;2022-08-07T14:05:01;5.0;4.6;
49686;PMS5003;36064;38.180;-122.272;2022-08-07T14:10:00;3.4;3.0;
49686;PMS5003;36064;38.180;-122.272;2022-08-07T14:15:02;5.0;5.2;
49686;PMS5003;36064;38.180;-122.272;2022-08-07T14:20:03;4.4;3.6;
49686;PMS5003;36064;38.180;-122.272;2022-08-07T14:25:02;4.6;4.6;
49686;PMS5003;36064;38.180;-122.272;2022-08-07T14:30:03;3.2;3.2;
49686;PMS5003;36064;38.180;-122.272;2022-08-07T14:35:00;2.79;2.79;
49686;PMS5003;36064;38.180;-122.272;2022-08-07T14:40:00;2.99;2.99;
49686;PMS5003;36064;38.180;-122.272;2022-08-07T14:45:02;4.4;3.6;
49686;PMS5003;36064;38.180;-122.272;2022-08-07T14:50:03;4.4;3.8;
49686;PMS5003;36064;38.180;-122.272;2022-08-07T14:55:00;3.4;3.8;
49686;PMS5003;36064;38.180;-122.272;2022-08-07T15:00:01;4.8;5.0;
49686;PMS5003;36064;38.180;-122.272;2022-08-07T15:05:01;3.4;3.0;
49686;PMS5003;36064;38.180;-122.272;2022-08-07T15:10:00;4.59;3.8;
49686;PMS5003;36064;38.180;-122.272;2022-08-07T15:15:02;3.0;3.0;
49686;PMS5003;36064;38.180;-122.272;2022-08-07T15:20:02;6.0;5.6;
49686;PMS5003;36064;38.180;-122.272;2022-08-07T15:25:02;3.2;3.2;
49686;PMS5003;36064;38.180;-122.272;2022-08-07T15:30:02;4.8;4.0;
49686;PMS5003;36064;38.180;-122.272;2022-08-07T15:35:00;3.8;2.8;
49686;PMS5003;36064;38.180;-122.272;2022-08-07T15:40:02;4.0;3.8;
49686;PMS5003;36064;38.180;-122.272;2022-08-07T15:45:00;4.8;4.4;
49686;PMS5003;36064;38.180;-122.272;2022-08-07T15:50:01;3.6;3.2;
49686;PMS5003;36064;38.180;-122.272;2022-08-07T15:55:01;4.4;4.0;
49686;PMS5003;36064;38.180;-122.272;2022-08-07T16:00:01;5.4;4.8;
49686;PMS5003;36064;38.180;-122.272;2022-08-07T16:05:02;3.8;3.8;
49686;PMS5003;36064;38.180;-122.272;2022-08-07T16:10:03;4.6;3.8;
49686;PMS5003;36064;38.180;-122.272;2022-08-07T16:15:05;3.2;2.8;
49686;PMS5003;36064;38.180;-122.272;2022-08-07T16:20:05;3.8;3.2;
49686;PMS5003;36064;38.180;-122.272;2022-08-07T16:25:02;4.0;3.4;
49686;PMS5003;36064;38.180;-122.272;2022-08-07T16:30:04;3.4;3.4;
49686;PMS5003;36064;38.180;-122.272;2022-08-07T16:35:07;3.4;2.8;
49686;PMS5003;36064;38.180;-122.272;2022-08-07T16:40:06;3.6;3.4;
49686;PMS5003;36064;38.180;-122.272;2022-08-07T16:45:09;5.2;4.6;
49686;PMS5003;36064;38.180;-122.272;2022-08-07T16:55:03;3.4;2.6;
49686;PMS5003;36064;38.180;-122.272;2022-08-07T17:00:03;5.2;4.0;
49686;PMS5003;36064;38.180;-122.272;2022-08-07T17:05:04;4.6;3.6;
49686;PMS5003;36064;38.180;-122.272;2022-08-07T17:10:01;4.2;3.4;
49686;PMS5003;36064;38.180;-122.272;2022-08-07T17:15:02;4.0;3.8;
49686;PMS5003;36064;38.180;-122.272;2022-08-07T17:20:04;4.2;3.8;
49686;PMS5003;36064;38.180;-122.272;2022-08-07T17:25:06;3.2;2.6;
49686;PMS5003;36064;38.180;-122.272;2022-08-07T17:30:03;3.2;3.6;
49686;PMS5003;36064;38.180;-122.272;2022-08-07T17:35:04;2.8;2.0;
49686;PMS5003;36064;38.180;-122.272;2022-08-07T17:40:03;1.6;1.6;
49686;PMS5003;36064;38.180;-122.272;2022-08-07T17:45:03;2.8;2.4;
49686;PMS5003;36064;38.180;-122.272;2022-08-07T17:50:02;2.6;2.2;
49686;PMS5003;36064;38.180;-122.272;2022-08-07T17:55:02;3.2;3.2;
49686;PMS5003;36064;38.180;-122.272;2022-08-07T18:00:02;3.6;3.6;
49686;PMS5003;36064;38.180;-122.272;2022-08-07T18:05:02;3.4;3.2;
49686;PMS5003;36064;38.180;-122.272;2022-08-07T18:10:02;3.0;2.2;
49686;PMS5003;36064;38.180;-122.272;2022-08-07T18:15:02;3.0;3.0;
49686;PMS5003;36064;38.180;-122.272;2022-08-07T18:20:02;3.0;2.8;
49686;PMS5003;36064;38.180;-122.272;2022-08-07T18:25:01;3.0;3.4;
49686;PMS5003;36064;38.180;-122.272;2022-08-07T18:30:02;3.0;3.6;
49686;PMS5003;36064;38.180;-122.272;2022-08-07T18:35:07;3.6;3.2;
49686;PMS5003;36064;38.180;-122.272;2022-08-07T18:40:04;3.2;3.2;
49686;PMS5003;36064;38.180;-122.272;2022-08-07T18:45:03;3.8;3.8;
49686;PMS5003;36064;38.180;-122.272;2022-08-07T18:50:06;2.0;2.0;
49686;PMS5003;36064;38.180;-122.272;2022-08-07T18:55:04;4.4;3.2;
49686;PMS5003;36064;38.180;-122.272;2022-08-07T19:00:02;3.4;2.2;
49686;PMS5003;36064;38.180;-122.272;2022-08-07T19:05:03;1.8;1.4;
49686;PMS5003;36064;38.180;-122.272;2022-08-07T19:10:02;2.8;2.8;
49686;PMS5003;36064;38.180;-122.272;2022-08-07T19:15:11;2.4;2.4;
49686;PMS5003;36064;38.180;-122.272;2022-08-07T19:20:02;2.8;2.2;
49686;PMS5003;36064;38.180;-122.272;2022-08-07T19:25:00;3.8;3.2;
49686;PMS5003;36064;38.180;-122.272;2022-08-07T19:30:06;3.2;2.8;
49686;PMS5003;36064;38.180;-122.272;2022-08-07T19:35:01;2.4;1.2;
49686;PMS5003;36064;38.180;-122.272;2022-08-07T19:40:01;2.6;1.8;
49686;PMS5003;36064;38.180;-122.272;2022-08-07T19:45:02;3.8;3.4;
49686;PMS5003;36064;38.180;-122.272;2022-08-07T19:50:00;2.6;2.4;
49686;PMS5003;36064;38.180;-122.272;2022-08-07T19:55:00;1.8;1.6;
49686;PMS5003;36064;38.180;-122.272;2022-08-07T20:00:03;1.6;1.6;
49686;PMS5003;36064;38.180;-122.272;2022-08-07T20:05:01;1.4;1.4;
49686;PMS5003;36064;38.180;-122.272;2022-08-07T20:10:01;2.2;2.2;
49686;PMS5003;36064;38.180;-122.272;2022-08-07T20:15:00;2.2;2.2;
49686;PMS5003;36064;38.180;-122.272;2022-08-07T20:20:00;2.0;2.0;
49686;PMS5003;36064;38.180;-122.272;2022-08-07T20:25:02;4.2;2.6;
49686;PMS5003;36064;38.180;-122.272;2022-08-07T20:30:01;2.6;2.4;
49686;PMS5003;36064;38.180;-122.272;2022-08-07T20:35:02;1.4;1.4;
49686;PMS5003;36064;38.180;-122.272;2022-08-07T20:40:01;1.8;1.8;
49686;PMS5003;36064;38.180;-122.272;2022-08-07T20:45:00;1.2;1.2;
49686;PMS5003;36064;38.180;-122.272;2022-08-07T20:50:00;2.0;1.8;
49686;PMS5003;36064;38.180;-122.272;2022-08-07T20:55:00;1.6;1.6;
49686;PMS5003;36064;38.180;-122.272;2022-08-07T21:00:01;3.4;2.2;
49686;PMS5003;36064;38.180;-122.272;2022-08-07T21:05:00;1.8;1.8;
49686;PMS5003;36064;38.180;-122.272;2022-08-07T21:10:01;3.0;2.2;
49686;PMS5003;36064;38.180;-122.272;2022-08-07T21:15:02;1.4;1.4;
49686;PMS5003;36064;38.180;-122.272;2022-08-07T21:20:01;3.0;1.4;
49686;PMS5003;36064;38.180;-122.272;2022-08-07T21:25:03;1.6;2.0;
49686;PMS5003;36064;38.180;-122.272;2022-08-07T21:30:01;3.0;1.8;
49686;PMS5003;36064;38.180;-122.272;2022-08-07T21:35:01;2.8;1.8;
49686;PMS5003;36064;38.180;-122.272;2022-08-07T21:40:02;2.0;2.0;
49686;PMS5003;36064;38.180;-122.272;2022-08-07T21:45:02;1.2;1.0;
49686;PMS5003;36064;38.180;-122.272;2022-08-07T21:50:02;1.2;1.2;
49686;PMS5003;36064;38.180;-122.272;2022-08-07T21:55:02;0.2;0.2;
49686;PMS5003;36064;38.180;-122.272;2022-08-07T22:00:03;0.2;0.2;
49686;PMS5003;36064;38.180;-122.272;2022-08-07T22:05:01;1.0;0.6;
49686;PMS5003;36064;38.180;-122.272;2022-08-07T22:10:02;1.2;0.6;
49686;PMS5003;36064;38.180;-122.272;2022-08-07T22:15:04;1.8;0.6;
49686;PMS5003;36064;38.180;-122.272;2022-08-07T22:20:03;0.6;0.6;
49686;PMS5003;36064;38.180;-122.272;2022-08-07T22:25:02;1.8;1.4;
49686;PMS5003;36064;38.180;-122.272;2022-08-07T22:30:03;1.8;1.4;
49686;PMS5003;36064;38.180;-122.272;2022-08-07T22:35:00;0.0;0.0;
49686;PMS5003;36064;38.180;-122.272;2022-08-07T22:40:02;0.0;0.0;
49686;PMS5003;36064;38.180;-122.272;2022-08-07T22:45:01;0.2;0.2;
49686;PMS5003;36064;38.180;-122.272;2022-08-07T23:00:03;0.4;0.4;
49686;PMS5003;36064;38.180;-122.272;2022-08-07T23:05:03;0.2;0.2;
49686;PMS5003;36064;38.180;-122.272;2022-08-07T23:10:02;0.2;0.2;
49686;PMS5003;36064;38.180;-122.272;2022-08-07T23:15:06;0.6;0.6;
49686;PMS5003;36064;38.180;-122.272;2022-08-07T23:20:17;1.0;1.0;
49686;PMS5003;36064;38.180;-122.272;2022-08-07T23:25:06;1.2;1.2;
49686;PMS5003;36064;38.180;-122.272;2022-08-07T23:30:02;1.2;1.2;
49686;PMS5003;36064;38.180;-122.272;2022-08-07T23:35:06;1.2;1.2;
49686;PMS5003;36064;38.180;-122.272;2022-08-07T23:40:04;0.8;0.4;
49686;PMS5003;36064;38.180;-122.272;2022-08-07T23:45:02;0.8;0.4;
49686;PMS5003;36064;38.180;-122.272;2022-08-07T23:50:04;0.6;0.6;
49686;PMS5003;36064;38.180;-122.272;2022-08-07T23:55:12;0.8;0.8;
